createdAt,value
2022-11-16T00:03:06.832Z,9.71
2022-11-16T00:08:03.772Z,9.68
2022-11-16T00:13:00.657Z,9.65
2022-11-16T00:17:58.671Z,9.40
2022-11-16T00:22:57.512Z,9.28
2022-11-16T00:27:54.372Z,9.27
2022-11-16T00:32:51.224Z,9.50
2022-11-16T00:37:48.016Z,9.44
2022-11-16T00:42:50.074Z,9.45
2022-11-16T00:47:47.239Z,9.12
2022-11-16T00:52:44.043Z,9.28
2022-11-16T00:57:42.813Z,9.38
2022-11-16T01:02:40.897Z,9.28
2022-11-16T01:07:41.357Z,9.03
2022-11-16T01:12:38.384Z,9.37
2022-11-16T01:17:37.557Z,9.33
2022-11-16T01:22:39.993Z,9.06
2022-11-16T01:27:37.441Z,9.06
2022-11-16T01:32:36.954Z,9.23
2022-11-16T01:37:39.431Z,8.94
2022-11-16T01:42:36.299Z,8.96
2022-11-16T01:47:33.572Z,8.91
2022-11-16T01:52:32.896Z,9.01
2022-11-16T01:57:33.592Z,9.06
2022-11-16T02:02:35.605Z,9.24
2022-11-16T02:08:00.434Z,9.45
2022-11-16T02:13:11.853Z,9.43
2022-11-16T02:18:20.353Z,9.30
2022-11-16T02:23:32.259Z,9.13
2022-11-16T02:28:34.430Z,9.45
2022-11-16T02:33:35.310Z,9.33
2022-11-16T02:38:38.123Z,9.29
2022-11-16T02:43:40.511Z,9.54
2022-11-16T02:48:40.174Z,9.34
2022-11-16T02:53:43.504Z,9.19
2022-11-16T02:58:42.579Z,9.31
2022-11-16T03:03:42.220Z,9.31
2022-11-16T03:08:54.936Z,9.54
2022-11-16T03:13:55.612Z,9.29
2022-11-16T03:18:55.997Z,9.00
2022-11-16T03:23:54.333Z,8.87
2022-11-16T03:28:55.846Z,8.73
2022-11-16T03:33:57.238Z,8.68
2022-11-16T03:38:58.195Z,8.65
2022-11-16T03:43:58.998Z,8.97
2022-11-16T03:48:58.292Z,8.89
2022-11-16T03:53:59.086Z,8.76
2022-11-16T03:58:55.999Z,8.68
2022-11-16T04:03:52.966Z,8.68
2022-11-16T04:09:12.393Z,8.68
2022-11-16T04:14:30.572Z,8.58
2022-11-16T04:19:45.396Z,8.58
2022-11-16T04:24:47.221Z,8.79
2022-11-16T04:29:44.209Z,8.68
2022-11-16T04:34:59.314Z,8.56
2022-11-16T04:39:58.746Z,8.62
2022-11-16T04:45:14.562Z,8.75
2022-11-16T04:50:19.262Z,8.66
2022-11-16T04:55:19.849Z,8.46
2022-11-16T05:00:19.246Z,8.66
2022-11-16T05:05:18.590Z,8.50
2022-11-16T05:10:20.099Z,8.77
2022-11-16T05:15:26.449Z,8.66
2022-11-16T05:20:42.340Z,8.84
2022-11-16T05:25:42.743Z,8.76
2022-11-16T05:30:44.926Z,8.70
2022-11-16T05:35:43.744Z,8.61
2022-11-16T05:40:42.614Z,8.71
2022-11-16T05:45:39.340Z,8.93
2022-11-16T05:50:42.774Z,8.82
2022-11-16T05:55:51.264Z,8.69
2022-11-16T06:00:50.505Z,9.00
2022-11-16T06:05:52.792Z,8.87
2022-11-16T06:10:49.734Z,8.79
2022-11-16T06:15:52.934Z,9.01
2022-11-16T06:20:50.945Z,8.61
2022-11-16T06:25:52.887Z,8.67
2022-11-16T06:30:50.129Z,8.75
2022-11-16T06:35:47.346Z,8.50
2022-11-16T06:40:55.844Z,8.59
2022-11-16T06:45:55.960Z,8.61
2022-11-16T06:50:52.825Z,8.67
2022-11-16T06:55:54.191Z,8.89
2022-11-16T07:00:51.098Z,8.66
2022-11-16T07:05:51.027Z,8.54
2022-11-16T07:10:49.319Z,8.54
2022-11-16T07:15:46.806Z,8.37
2022-11-16T07:20:43.455Z,8.59
2022-11-16T07:25:46.163Z,8.67
2022-11-16T07:30:44.152Z,8.63
2022-11-16T07:35:44.795Z,8.75
2022-11-16T07:40:48.500Z,8.77
2022-11-16T07:45:48.466Z,8.80
2022-11-16T07:50:48.543Z,8.92
2022-11-16T07:55:51.343Z,8.94
2022-11-16T08:00:50.669Z,8.87
2022-11-16T08:05:48.405Z,8.63
2022-11-16T08:10:45.681Z,8.59
2022-11-16T08:15:43.240Z,8.74
2022-11-16T08:20:43.246Z,8.66
2022-11-16T08:25:41.376Z,8.95
2022-11-16T08:30:38.853Z,9.14
2022-11-16T08:35:36.794Z,9.31
2022-11-16T08:40:36.936Z,9.20
2022-11-16T08:45:35.131Z,9.21
2022-11-16T08:50:44.152Z,9.60
2022-11-16T08:55:49.243Z,9.53
2022-11-16T09:00:49.818Z,9.62
2022-11-16T09:05:47.901Z,9.63
2022-11-16T09:10:45.798Z,9.66
2022-11-16T09:15:42.467Z,9.63
2022-11-16T09:20:44.145Z,9.25
2022-11-16T09:25:41.512Z,8.97
2022-11-16T09:30:40.317Z,9.37
2022-11-16T09:35:37.084Z,9.25
2022-11-16T09:40:36.520Z,9.42
2022-11-16T09:45:37.796Z,9.78
2022-11-16T09:50:39.753Z,9.47
2022-11-16T09:55:47.657Z,9.44
2022-11-16T10:00:47.437Z,9.30
2022-11-16T10:05:48.951Z,9.32
2022-11-16T10:10:53.364Z,9.21
2022-11-16T10:15:55.989Z,9.30
2022-11-16T10:20:58.195Z,9.30
2022-11-16T10:25:58.331Z,9.21
2022-11-16T10:31:07.661Z,9.43
2022-11-16T10:36:06.123Z,9.73
2022-11-16T10:41:09.600Z,9.69
2022-11-16T10:46:12.616Z,9.71
2022-11-16T10:51:11.491Z,9.73
2022-11-16T10:56:18.526Z,9.81
2022-11-16T11:01:27.057Z,9.68
2022-11-16T11:06:32.687Z,9.77
2022-11-16T11:11:48.728Z,9.74
2022-11-16T11:16:45.420Z,10.02
2022-11-16T11:21:49.028Z,9.98
2022-11-16T11:26:52.571Z,9.90
2022-11-16T11:31:50.442Z,9.99
2022-11-16T11:36:49.281Z,10.11
2022-11-16T11:41:47.063Z,9.98
2022-11-16T11:47:35.156Z,10.00
2022-11-16T11:52:11.694Z,10.10
2022-11-16T11:57:12.443Z,10.12
2022-11-16T12:02:19.861Z,10.08
2022-11-16T12:07:24.299Z,9.71
2022-11-16T12:12:34.912Z,10.06
2022-11-16T12:17:43.406Z,10.04
2022-11-16T12:22:58.457Z,10.19
2022-11-16T12:28:10.174Z,10.11
2022-11-16T12:33:16.345Z,10.13
2022-11-16T12:38:26.079Z,10.16
2022-11-16T12:43:31.423Z,10.09
2022-11-16T12:48:41.986Z,10.30
2022-11-16T12:53:59.698Z,10.39
2022-11-16T12:59:13.589Z,10.12
2022-11-16T13:04:16.350Z,10.48
2022-11-16T13:09:16.669Z,10.72
2022-11-16T13:14:16.724Z,10.46
2022-11-16T13:19:15.328Z,10.43
2022-11-16T13:24:25.748Z,10.37
2022-11-16T13:29:31.728Z,10.67
2022-11-16T13:34:32.641Z,10.72
2022-11-16T13:39:47.835Z,10.94
2022-11-16T13:44:51.305Z,10.81
2022-11-16T13:49:58.655Z,10.67
2022-11-16T13:54:58.610Z,10.42
2022-11-16T14:00:07.353Z,10.66
2022-11-16T14:05:06.120Z,10.62
2022-11-16T14:10:06.857Z,10.71
2022-11-16T14:15:12.967Z,10.54
2022-11-16T14:20:15.177Z,10.65
2022-11-16T14:25:23.472Z,10.80
2022-11-16T14:30:22.278Z,10.75
2022-11-16T14:35:27.462Z,10.80
2022-11-16T14:40:25.020Z,10.93
2022-11-16T14:45:24.437Z,10.78
2022-11-16T14:50:27.381Z,10.94
2022-11-16T14:55:25.948Z,10.98
2022-11-16T15:00:25.338Z,10.93
2022-11-16T15:05:29.263Z,10.94
2022-11-16T15:10:29.538Z,10.96
2022-11-16T15:15:28.094Z,11.11
2022-11-16T15:20:30.797Z,11.22
2022-11-16T15:25:28.771Z,11.38
2022-11-16T15:30:27.709Z,11.37
2022-11-16T15:35:25.753Z,11.52
2022-11-16T15:40:23.847Z,11.52
2022-11-16T15:45:24.305Z,11.53
2022-11-16T15:50:24.962Z,11.63
2022-11-16T15:55:25.956Z,11.49
2022-11-16T16:00:23.391Z,11.51
2022-11-16T16:05:23.945Z,11.43
2022-11-16T16:10:25.308Z,11.14
2022-11-16T16:15:24.224Z,10.69
2022-11-16T16:20:22.480Z,10.92
2022-11-16T16:25:26.053Z,10.91
2022-11-16T16:30:24.007Z,10.88
2022-11-16T16:35:22.332Z,10.94
2022-11-16T16:40:19.347Z,10.80
2022-11-16T16:45:18.856Z,10.72
2022-11-16T16:50:16.939Z,10.74
2022-11-16T16:55:13.828Z,10.46
2022-11-16T17:00:11.134Z,10.77
2022-11-16T17:05:08.855Z,10.90
2022-11-16T17:10:07.588Z,10.92
2022-11-16T17:15:05.230Z,10.78
2022-11-16T17:20:02.190Z,10.35
2022-11-16T17:24:59.523Z,10.19
2022-11-16T17:30:00.621Z,10.23
2022-11-16T17:34:57.440Z,10.07
2022-11-16T17:39:56.823Z,10.20
2022-11-16T17:44:54.801Z,10.17
2022-11-16T17:49:52.403Z,10.18
2022-11-16T17:54:49.117Z,10.04
2022-11-16T17:59:48.805Z,9.95
2022-11-16T18:04:50.734Z,10.07
2022-11-16T18:09:51.050Z,10.30
2022-11-16T18:15:13.572Z,10.25
2022-11-16T18:20:07.872Z,10.56
2022-11-16T18:25:06.380Z,10.50
2022-11-16T18:30:03.214Z,10.48
2022-11-16T18:35:03.110Z,10.58
2022-11-16T18:40:00.786Z,10.95
2022-11-16T18:44:59.154Z,10.96
2022-11-16T18:49:55.950Z,11.11
2022-11-16T18:54:52.729Z,11.21
2022-11-16T18:59:49.569Z,11.30
2022-11-16T19:04:47.334Z,11.45
2022-11-16T19:09:47.163Z,11.43
2022-11-16T19:14:46.639Z,11.49
2022-11-16T19:19:43.595Z,11.54
2022-11-16T19:24:46.486Z,11.61
2022-11-16T19:29:43.136Z,11.56
2022-11-16T19:34:39.806Z,11.53
2022-11-16T19:39:36.803Z,11.41
2022-11-16T19:44:34.482Z,11.18
2022-11-16T19:49:31.364Z,11.15
2022-11-16T19:54:28.105Z,11.24
2022-11-16T19:59:24.775Z,11.31
2022-11-16T20:04:26.626Z,11.41
2022-11-16T20:09:25.198Z,11.46
2022-11-16T20:14:21.936Z,11.51
2022-11-16T20:19:20.266Z,11.59
2022-11-16T20:24:17.717Z,11.48
2022-11-16T20:29:15.521Z,11.48
2022-11-16T20:34:13.625Z,11.52
2022-11-16T20:39:12.739Z,11.58
2022-11-16T20:44:15.990Z,11.60
2022-11-16T20:49:15.689Z,11.56
2022-11-16T20:54:12.323Z,11.54
2022-11-16T20:59:09.033Z,11.58
2022-11-16T21:04:07.052Z,11.46
2022-11-16T21:09:06.162Z,11.50
2022-11-16T21:14:18.229Z,11.51
2022-11-16T21:19:17.957Z,11.54
2022-11-16T21:24:14.709Z,11.68
2022-11-16T21:29:14.318Z,11.70
2022-11-16T21:34:11.067Z,11.71
2022-11-16T21:39:09.558Z,11.76
2022-11-16T21:44:06.248Z,11.78
2022-11-16T21:49:02.896Z,11.81
2022-11-16T21:53:59.532Z,11.90
2022-11-16T21:59:00.810Z,11.81
2022-11-16T22:04:15.546Z,11.62
2022-11-16T22:09:12.295Z,11.36
2022-11-16T22:14:10.781Z,11.14
2022-11-16T22:19:07.485Z,11.02
2022-11-16T22:24:04.424Z,11.15
2022-11-16T22:29:01.436Z,11.11
2022-11-16T22:34:01.968Z,11.20
2022-11-16T22:38:58.700Z,11.42
2022-11-16T22:43:57.793Z,11.44
2022-11-16T22:48:54.697Z,11.14
2022-11-16T22:53:53.727Z,11.23
2022-11-16T22:58:53.853Z,10.98
2022-11-16T23:03:50.822Z,11.15
2022-11-16T23:08:50.170Z,11.15
2022-11-16T23:14:05.621Z,11.22
2022-11-16T23:19:27.156Z,11.44
2022-11-16T23:24:44.233Z,11.51
2022-11-16T23:29:41.928Z,11.69
2022-11-16T23:34:38.568Z,11.78
2022-11-16T23:39:35.172Z,11.84
2022-11-16T23:44:34.342Z,11.98
2022-11-16T23:49:31.653Z,12.09
2022-11-16T23:54:28.307Z,12.13
2022-11-16T23:59:27.522Z,12.09
